Flight Track Log - Related Links

Times and Time Zones

All times are in EDT time to prevent confusion due to time zone crossing. See the N350AB flight status page for this flight to view local times or setup timezone preferences in your user account.

Time Position Orientation Groundspeed Altitude Reporting Facility
EDT Latitude Longitude Course Direction KTS MPH feet Rate Location/Type
Sun 09:57:35 AM 34.8391 -106.4754 120° Southeast 250 288 13,400  Level FlightAware ADS-B (KAEG)
Sun 09:58:16 AM 34.8124 -106.4290 127° Southeast 244 281 14,600 1,624 Climbing FlightAware ADS-B (KAEG)
Sun 09:59:00 AM 34.7836 -106.3796 125° Southeast 248 285 15,700 1,477 Climbing FlightAware ADS-B (KAEG)
Sun 10:00:26 AM 34.7253 -106.2900 125° Southeast 248 285 17,800 1,265 Climbing Albuquerque Center
Sun 10:01:27 AM 34.6817 -106.2225 128° Southeast 250 288 18,800 1,131 Climbing Albuquerque Center
Sun 10:02:28 AM 34.6389 -106.1572 129° Southeast 251 289 20,100 1,328 Climbing Albuquerque Center
Sun 10:03:29 AM 34.5967 -106.0925 128° Southeast 250 288 21,500 1,220 Climbing Albuquerque Center
Sun 10:04:31 AM 34.5511 -106.0214 128° Southeast 249 287 22,600 1,024 Climbing Albuquerque Center
Sun 10:05:32 AM 34.5083 -105.9542 128° Southeast 249 287 23,600 984 Climbing Albuquerque Center
Sun 10:06:33 AM 34.4644 -105.8872 128° Southeast 250 288 24,600 689 Climbing Albuquerque Center
Sun 10:07:34 AM 34.4194 -105.8169 128° Southeast 256 295 25,000 197 Climbing Albuquerque Center
Sun 10:08:35 AM 34.3692 -105.7414 129° Southeast 276 318 25,000  Level Albuquerque Center
Sun 10:14:10 AM 34.0678 -105.2806 128° Southeast 305 351 25,000  Level FlightAware ADS-B (KROW)
Sun 10:14:40 AM 34.0424 -105.2421 128° Southeast 305 351 25,000  Level FlightAware ADS-B (KROW)
Sun 10:15:02 AM 34.0233 -105.2134 128° Southeast 305 351 25,000  Level FlightAware ADS-B (KROW)
Sun 10:15:33 AM 33.9999 -105.1781 128° Southeast 305 351 25,000  Level FlightAware ADS-B (KROW)
Sun 10:15:58 AM 33.9786 -105.1460 128° Southeast 305 351 25,000  Level FlightAware ADS-B (KROW)
Sun 10:16:40 AM 33.9364 -105.0826 128° Southeast 305 351 25,000  Level FlightAware ADS-B (KROW)
Sun 10:17:10 AM 33.9103 -105.0432 128° Southeast 304 350 25,000  Level FlightAware ADS-B (KROW)
Sun 10:17:40 AM 33.8828 -105.0019 128° Southeast 305 351 25,000  Level FlightAware ADS-B (KROW)
Sun 10:18:10 AM 33.8564 -104.9624 128° Southeast 304 350 25,000  Level FlightAware ADS-B (KROW)
Sun 10:18:40 AM 33.8303 -104.9234 128° Southeast 304 350 25,000  Level FlightAware ADS-B (KROW)
Sun 10:19:10 AM 33.8040 -104.8841 128° Southeast 305 351 25,000  Level FlightAware ADS-B (KROW)
Sun 10:19:40 AM 33.7770 -104.8437 128° Southeast 303 349 25,000  Level FlightAware ADS-B (KROW)
Sun 10:20:10 AM 33.7512 -104.8052 128° Southeast 303 349 25,000  Level FlightAware ADS-B (KROW)
Sun 10:20:40 AM 33.7250 -104.7661 128° Southeast 303 349 25,000  Level FlightAware ADS-B (KROW)
Sun 10:21:10 AM 33.6983 -104.7263 128° Southeast 302 348 25,000  Level FlightAware ADS-B (KROW)
Sun 10:21:40 AM 33.6725 -104.6878 128° Southeast 301 346 25,000  Level FlightAware ADS-B (KROW)
Sun 10:22:10 AM 33.6452 -104.6472 128° Southeast 301 346 25,000  Level FlightAware ADS-B (KROW)
Sun 10:22:41 AM 33.6207 -104.6109 128° Southeast 301 346 25,000  Level FlightAware ADS-B (KROW)
Sun 10:23:10 AM 33.5930 -104.5698 128° Southeast 300 345 25,000  Level FlightAware ADS-B (KROW)
Sun 10:23:40 AM 33.5670 -104.5312 128° Southeast 300 345 25,000  Level FlightAware ADS-B (KROW)
Sun 10:24:10 AM 33.5405 -104.4920 128° Southeast 300 345 25,000  Level FlightAware ADS-B (KROW)
Sun 10:24:40 AM 33.5144 -104.4534 128° Southeast 299 344 25,000  Level FlightAware ADS-B (KROW)
Sun 10:25:08 AM 33.4906 -104.4183 129° Southeast 298 343 25,000  Level FlightAware ADS-B (KROW)
Sun 10:25:41 AM 33.4618 -104.3758 129° Southeast 298 343 25,000  Level FlightAware ADS-B (KROW)
Sun 10:26:10 AM 33.4365 -104.3387 129° Southeast 298 343 25,000  Level FlightAware ADS-B (KROW)
Sun 10:26:39 AM 33.4109 -104.3009 129° Southeast 298 343 25,000  Level FlightAware ADS-B (KROW)
Sun 10:27:10 AM 33.3838 -104.2611 129° Southeast 299 344 25,000  Level FlightAware ADS-B (KROW)
Sun 10:27:38 AM 33.3591 -104.2249 129° Southeast 300 345 25,000  Level FlightAware ADS-B (KROW)
Sun 10:28:09 AM 33.3316 -104.1845 129° Southeast 301 346 25,000  Level FlightAware ADS-B (KROW)
Sun 10:28:40 AM 33.3047 -104.1451 129° Southeast 302 348 25,000  Level FlightAware ADS-B (KROW)
Sun 10:29:10 AM 33.2785 -104.1067 129° Southeast 302 348 25,000  Level FlightAware ADS-B (KROW)
Sun 10:29:40 AM 33.2520 -104.0679 129° Southeast 302 348 25,000  Level FlightAware ADS-B (KROW)
Sun 10:30:10 AM 33.2250 -104.0284 129° Southeast 302 348 25,000  Level FlightAware ADS-B (KROW)
Sun 10:30:40 AM 33.1984 -103.9897 129° Southeast 303 349 25,000  Level FlightAware ADS-B (KROW)
Sun 10:31:10 AM 33.1715 -103.9503 129° Southeast 304 350 25,000  Level FlightAware ADS-B (KROW)
Sun 10:31:39 AM 33.1463 -103.9136 129° Southeast 304 350 25,000  Level FlightAware ADS-B (KROW)
Sun 10:32:09 AM 33.1188 -103.8737 129° Southeast 304 350 25,000  Level FlightAware ADS-B (KROW)
Sun 10:32:39 AM 33.0928 -103.8359 129° Southeast 303 349 25,000  Level FlightAware ADS-B (KROW)
Sun 10:33:10 AM 33.0653 -103.7959 129° Southeast 303 349 25,000  Level FlightAware ADS-B (KROW)
Sun 10:33:40 AM 33.0380 -103.7563 129° Southeast 304 350 25,000  Level FlightAware ADS-B (KROW)
Sun 10:34:10 AM 33.0108 -103.7168 129° Southeast 304 350 25,000  Level FlightAware ADS-B (KROW)
Sun 10:34:40 AM 32.9840 -103.6781 129° Southeast 306 352 25,000  Level FlightAware ADS-B (KROW)
Sun 10:35:08 AM 32.9588 -103.6418 129° Southeast 306 352 25,000  Level FlightAware ADS-B (KROW)
Sun 10:35:38 AM 32.9321 -103.6032 129° Southeast 307 353 25,000  Level FlightAware ADS-B (KROW)
Sun 10:36:11 AM 32.9025 -103.5605 129° Southeast 308 354 25,000  Level FlightAware ADS-B (KROW)
Sun 10:36:39 AM 32.8768 -103.5235 129° Southeast 309 356 25,000  Level FlightAware ADS-B (KROW)
Sun 10:37:09 AM 32.8488 -103.4832 129° Southeast 309 356 25,000  Level FlightAware ADS-B (KROW)
Sun 10:37:40 AM 32.8205 -103.4427 129° Southeast 309 356 25,000  Level FlightAware ADS-B (KROW)
Sun 10:38:09 AM 32.7948 -103.4055 129° Southeast 310 357 25,000  Level FlightAware ADS-B (KROW)
Sun 10:38:38 AM 32.7685 -103.3677 129° Southeast 309 356 25,000  Level FlightAware ADS-B (KROW)
Sun 10:39:08 AM 32.7407 -103.3278 129° Southeast 309 356 25,000  Level FlightAware ADS-B (KROW)
Sun 10:39:36 AM 32.7147 -103.2906 129° Southeast 308 354 25,000 -400 Level FlightAware ADS-B (KROW)
Sun 10:40:08 AM 32.6847 -103.2477 129° Southeast 323 372 24,600 -774 Descending FlightAware ADS-B (KROW)
Sun 10:40:38 AM 32.6566 -103.2076 129° Southeast 330 380 24,200 -1,279 Descending FlightAware ADS-B (KROW)
Sun 10:41:09 AM 32.6250 -103.1626 129° Southeast 339 390 23,300 -1,770 Descending FlightAware ADS-B (KROW)
Sun 10:41:39 AM 32.5956 -103.1207 129° Southeast 335 386 22,400 -1,800 Descending FlightAware ADS-B (KROW)
Sun 10:42:09 AM 32.5649 -103.0769 129° Southeast 343 395 21,500 -1,714 Descending FlightAware ADS-B (KROW)
Sun 10:42:35 AM 32.5408 -103.0428 129° Southeast 345 397 20,800 -1,700 Descending FlightAware ADS-B (KROW)
Sun 10:43:09 AM 32.5062 -102.9936 129° Southeast 339 390 19,800 -1,714 Descending FlightAware ADS-B (KROW)
Sun 10:43:45 AM 32.4710 -102.9436 129° Southeast 334 384 18,800 -1,518 Descending FlightAware ADS-B (KROW)
Sun 10:44:32 AM 32.4336 -102.8917 129° Southeast 339 390 17,700 -1,541 Descending Fort Worth Center
Sun 10:45:34 AM 32.3764 -102.8100 130° Southeast 328 377 16,000 -1,839 Descending Fort Worth Center
Sun 10:46:36 AM 32.3081 -102.7131 130° Southeast 327 376 13,900 -1,887 Descending Fort Worth Center
Sun 10:47:38 AM 32.2525 -102.6356 130° Southeast 319 367 12,100 -1,742 Descending Fort Worth Center
Sun 10:48:40 AM 32.2036 -102.5661 130° Southeast 285 328 10,300 -1,694 Descending Fort Worth Center
Sun 10:49:42 AM 32.1528 -102.4961 131° Southeast 282 325 8,600 -1,500 Descending Fort Worth Center
Sun 10:50:44 AM 32.0981 -102.4172 129° Southeast 277 319 7,200 -1,210 Descending Fort Worth Center
Sun 10:51:46 AM 32.0572 -102.3406 122° Southeast 273 314 6,100 -1,161 Descending Fort Worth Center
Sun 10:52:48 AM 32.0206 -102.2669 120° Southeast 264 304 4,800 -1,122 Descending Fort Worth Center
Sun 10:53:49 AM 31.9992 -102.2158 116° Southeast 185 213 3,800 -780 Descending Fort Worth Center
Sun 10:54:51 AM 31.9678 -102.2061 165° South 119 137 3,200 -581 Descending Fort Worth Center
Sun 10:56:00 AM 31.9425 -102.2019 140° Southeast  Level Estimated
Sun 11:03:00 AM 31.9425 -102.2019 140° Southeast  Level Estimated

Login

Don't have an account? Register now (free) for customized features, flight alerts, and more!